sensor_id;sensor_type;location;lat;lon;timestamp;P1;durP1;ratioP1;P2;durP2;ratioP2
34725;SDS011;20951;50.818;4.344;2023-09-08T00:02:24;9.23;;;4.70;;
34725;SDS011;20951;50.818;4.344;2023-09-08T00:04:50;7.35;;;4.70;;
34725;SDS011;20951;50.818;4.344;2023-09-08T00:07:16;9.57;;;5.00;;
34725;SDS011;20951;50.818;4.344;2023-09-08T00:09:42;6.40;;;4.72;;
34725;SDS011;20951;50.818;4.344;2023-09-08T00:12:08;7.00;;;4.90;;
34725;SDS011;20951;50.818;4.344;2023-09-08T00:14:33;5.72;;;4.65;;
34725;SDS011;20951;50.818;4.344;2023-09-08T00:16:59;7.32;;;4.80;;
34725;SDS011;20951;50.818;4.344;2023-09-08T00:19:25;9.45;;;5.00;;
34725;SDS011;20951;50.818;4.344;2023-09-08T00:21:51;7.93;;;5.38;;
34725;SDS011;20951;50.818;4.344;2023-09-08T00:24:16;7.50;;;5.25;;
34725;SDS011;20951;50.818;4.344;2023-09-08T00:26:43;8.27;;;4.72;;
34725;SDS011;20951;50.818;4.344;2023-09-08T00:29:09;7.10;;;5.15;;
34725;SDS011;20951;50.818;4.344;2023-09-08T00:31:34;9.07;;;5.32;;
34725;SDS011;20951;50.818;4.344;2023-09-08T00:34:00;7.35;;;4.82;;
34725;SDS011;20951;50.818;4.344;2023-09-08T00:36:26;9.35;;;5.10;;
34725;SDS011;20951;50.818;4.344;2023-09-08T00:38:52;9.30;;;5.15;;
34725;SDS011;20951;50.818;4.344;2023-09-08T00:41:18;7.35;;;5.30;;
34725;SDS011;20951;50.818;4.344;2023-09-08T00:43:43;6.35;;;4.90;;
34725;SDS011;20951;50.818;4.344;2023-09-08T00:46:09;6.95;;;5.75;;
34725;SDS011;20951;50.818;4.344;2023-09-08T00:48:37;9.02;;;5.30;;
34725;SDS011;20951;50.818;4.344;2023-09-08T00:51:03;8.55;;;5.22;;
34725;SDS011;20951;50.818;4.344;2023-09-08T00:53:32;8.63;;;5.15;;
34725;SDS011;20951;50.818;4.344;2023-09-08T00:55:58;8.88;;;5.25;;
34725;SDS011;20951;50.818;4.344;2023-09-08T00:58:25;8.63;;;4.97;;
34725;SDS011;20951;50.818;4.344;2023-09-08T01:00:51;7.28;;;5.35;;
34725;SDS011;20951;50.818;4.344;2023-09-08T01:03:16;8.57;;;5.50;;
34725;SDS011;20951;50.818;4.344;2023-09-08T01:05:42;10.20;;;5.57;;
34725;SDS011;20951;50.818;4.344;2023-09-08T01:08:11;9.82;;;5.60;;
34725;SDS011;20951;50.818;4.344;2023-09-08T01:10:38;6.95;;;5.68;;
34725;SDS011;20951;50.818;4.344;2023-09-08T01:13:07;8.82;;;6.05;;
34725;SDS011;20951;50.818;4.344;2023-09-08T01:15:32;7.93;;;5.40;;
34725;SDS011;20951;50.818;4.344;2023-09-08T01:17:58;11.98;;;6.20;;
34725;SDS011;20951;50.818;4.344;2023-09-08T01:20:25;11.35;;;6.05;;
34725;SDS011;20951;50.818;4.344;2023-09-08T01:23:21;8.50;;;5.72;;
34725;SDS011;20951;50.818;4.344;2023-09-08T01:26:01;9.07;;;6.22;;
34725;SDS011;20951;50.818;4.344;2023-09-08T01:28:38;8.20;;;5.63;;
34725;SDS011;20951;50.818;4.344;2023-09-08T01:31:05;10.82;;;6.18;;
34725;SDS011;20951;50.818;4.344;2023-09-08T01:33:32;10.93;;;6.25;;
34725;SDS011;20951;50.818;4.344;2023-09-08T01:35:58;10.07;;;5.68;;
34725;SDS011;20951;50.818;4.344;2023-09-08T01:38:24;8.02;;;6.40;;
34725;SDS011;20951;50.818;4.344;2023-09-08T01:40:50;9.00;;;5.75;;
34725;SDS011;20951;50.818;4.344;2023-09-08T01:43:16;9.60;;;6.38;;
34725;SDS011;20951;50.818;4.344;2023-09-08T01:45:41;7.50;;;6.15;;
34725;SDS011;20951;50.818;4.344;2023-09-08T01:48:07;6.85;;;6.07;;
34725;SDS011;20951;50.818;4.344;2023-09-08T01:50:33;8.73;;;6.32;;
34725;SDS011;20951;50.818;4.344;2023-09-08T01:52:59;11.90;;;6.50;;
34725;SDS011;20951;50.818;4.344;2023-09-08T01:55:24;8.20;;;6.18;;
34725;SDS011;20951;50.818;4.344;2023-09-08T01:57:50;9.73;;;6.47;;
34725;SDS011;20951;50.818;4.344;2023-09-08T02:00:16;9.30;;;6.55;;
34725;SDS011;20951;50.818;4.344;2023-09-08T02:02:42;8.27;;;6.47;;
34725;SDS011;20951;50.818;4.344;2023-09-08T02:05:08;8.82;;;6.25;;
34725;SDS011;20951;50.818;4.344;2023-09-08T02:07:34;8.18;;;6.03;;
34725;SDS011;20951;50.818;4.344;2023-09-08T02:10:01;9.00;;;6.30;;
34725;SDS011;20951;50.818;4.344;2023-09-08T02:12:27;9.50;;;6.63;;
34725;SDS011;20951;50.818;4.344;2023-09-08T02:14:52;9.38;;;6.30;;
34725;SDS011;20951;50.818;4.344;2023-09-08T02:17:18;10.57;;;7.05;;
34725;SDS011;20951;50.818;4.344;2023-09-08T02:19:44;10.13;;;6.53;;
34725;SDS011;20951;50.818;4.344;2023-09-08T02:22:11;11.23;;;6.55;;
34725;SDS011;20951;50.818;4.344;2023-09-08T02:24:37;7.72;;;6.50;;
34725;SDS011;20951;50.818;4.344;2023-09-08T02:27:02;8.05;;;6.65;;
34725;SDS011;20951;50.818;4.344;2023-09-08T02:29:29;9.07;;;6.68;;
34725;SDS011;20951;50.818;4.344;2023-09-08T02:31:55;8.68;;;6.80;;
34725;SDS011;20951;50.818;4.344;2023-09-08T02:34:21;10.80;;;6.40;;
34725;SDS011;20951;50.818;4.344;2023-09-08T02:36:47;8.13;;;6.47;;
34725;SDS011;20951;50.818;4.344;2023-09-08T02:39:13;8.52;;;6.07;;
34725;SDS011;20951;50.818;4.344;2023-09-08T02:41:38;9.77;;;6.43;;
34725;SDS011;20951;50.818;4.344;2023-09-08T02:44:05;9.90;;;6.40;;
34725;SDS011;20951;50.818;4.344;2023-09-08T02:46:30;10.13;;;6.32;;
34725;SDS011;20951;50.818;4.344;2023-09-08T02:48:56;7.97;;;6.80;;
34725;SDS011;20951;50.818;4.344;2023-09-08T02:51:22;9.45;;;6.55;;
34725;SDS011;20951;50.818;4.344;2023-09-08T02:53:48;9.93;;;6.35;;
34725;SDS011;20951;50.818;4.344;2023-09-08T02:56:13;10.45;;;6.50;;
34725;SDS011;20951;50.818;4.344;2023-09-08T02:58:39;8.80;;;6.75;;
34725;SDS011;20951;50.818;4.344;2023-09-08T03:03:41;10.05;;;7.00;;
34725;SDS011;20951;50.818;4.344;2023-09-08T03:06:08;10.07;;;7.05;;
34725;SDS011;20951;50.818;4.344;2023-09-08T03:08:34;8.15;;;6.85;;
34725;SDS011;20951;50.818;4.344;2023-09-08T03:11:01;9.25;;;6.43;;
34725;SDS011;20951;50.818;4.344;2023-09-08T03:13:27;8.10;;;6.55;;
34725;SDS011;20951;50.818;4.344;2023-09-08T03:15:54;12.00;;;6.40;;
34725;SDS011;20951;50.818;4.344;2023-09-08T03:18:20;7.63;;;6.80;;
34725;SDS011;20951;50.818;4.344;2023-09-08T03:20:50;11.02;;;6.60;;
34725;SDS011;20951;50.818;4.344;2023-09-08T03:23:16;8.73;;;6.60;;
34725;SDS011;20951;50.818;4.344;2023-09-08T03:25:42;11.68;;;6.70;;
34725;SDS011;20951;50.818;4.344;2023-09-08T03:28:08;9.35;;;6.93;;
34725;SDS011;20951;50.818;4.344;2023-09-08T03:30:34;8.73;;;7.22;;
34725;SDS011;20951;50.818;4.344;2023-09-08T03:33:00;13.48;;;6.60;;
34725;SDS011;20951;50.818;4.344;2023-09-08T03:35:25;9.10;;;6.90;;
34725;SDS011;20951;50.818;4.344;2023-09-08T03:37:51;8.43;;;6.88;;
34725;SDS011;20951;50.818;4.344;2023-09-08T03:40:17;7.97;;;6.47;;
34725;SDS011;20951;50.818;4.344;2023-09-08T03:42:43;10.75;;;6.82;;
34725;SDS011;20951;50.818;4.344;2023-09-08T03:45:08;12.55;;;7.20;;
34725;SDS011;20951;50.818;4.344;2023-09-08T03:47:34;8.05;;;6.72;;
34725;SDS011;20951;50.818;4.344;2023-09-08T03:50:00;9.23;;;6.78;;
34725;SDS011;20951;50.818;4.344;2023-09-08T03:52:26;10.43;;;6.85;;
34725;SDS011;20951;50.818;4.344;2023-09-08T03:54:52;9.40;;;7.10;;
34725;SDS011;20951;50.818;4.344;2023-09-08T03:57:17;11.25;;;6.80;;
34725;SDS011;20951;50.818;4.344;2023-09-08T03:59:43;9.90;;;6.93;;
34725;SDS011;20951;50.818;4.344;2023-09-08T04:02:09;10.48;;;7.00;;
34725;SDS011;20951;50.818;4.344;2023-09-08T04:04:35;10.77;;;7.00;;
34725;SDS011;20951;50.818;4.344;2023-09-08T04:07:00;11.60;;;7.03;;
34725;SDS011;20951;50.818;4.344;2023-09-08T04:09:26;10.30;;;7.13;;
34725;SDS011;20951;50.818;4.344;2023-09-08T04:11:53;9.57;;;6.80;;
34725;SDS011;20951;50.818;4.344;2023-09-08T04:14:20;10.60;;;7.18;;
34725;SDS011;20951;50.818;4.344;2023-09-08T04:16:48;9.07;;;7.25;;
34725;SDS011;20951;50.818;4.344;2023-09-08T04:19:14;10.43;;;7.60;;
34725;SDS011;20951;50.818;4.344;2023-09-08T04:21:40;8.88;;;6.85;;
34725;SDS011;20951;50.818;4.344;2023-09-08T04:24:06;9.98;;;6.97;;
34725;SDS011;20951;50.818;4.344;2023-09-08T04:26:32;9.60;;;7.20;;
34725;SDS011;20951;50.818;4.344;2023-09-08T04:28:58;10.25;;;7.35;;
34725;SDS011;20951;50.818;4.344;2023-09-08T04:31:23;9.98;;;7.15;;
34725;SDS011;20951;50.818;4.344;2023-09-08T04:33:49;10.07;;;7.18;;
34725;SDS011;20951;50.818;4.344;2023-09-08T04:36:15;9.30;;;6.93;;
34725;SDS011;20951;50.818;4.344;2023-09-08T04:38:41;7.90;;;7.00;;
34725;SDS011;20951;50.818;4.344;2023-09-08T04:41:08;9.82;;;6.80;;
34725;SDS011;20951;50.818;4.344;2023-09-08T04:43:33;10.38;;;7.40;;
34725;SDS011;20951;50.818;4.344;2023-09-08T04:45:59;10.75;;;7.32;;
34725;SDS011;20951;50.818;4.344;2023-09-08T04:48:27;10.98;;;7.05;;
34725;SDS011;20951;50.818;4.344;2023-09-08T04:50:53;9.43;;;7.35;;
34725;SDS011;20951;50.818;4.344;2023-09-08T04:53:19;11.48;;;7.35;;
34725;SDS011;20951;50.818;4.344;2023-09-08T04:55:44;9.80;;;7.68;;
34725;SDS011;20951;50.818;4.344;2023-09-08T04:58:10;12.02;;;7.35;;
34725;SDS011;20951;50.818;4.344;2023-09-08T05:00:37;9.80;;;7.40;;
34725;SDS011;20951;50.818;4.344;2023-09-08T05:03:04;9.95;;;7.47;;
34725;SDS011;20951;50.818;4.344;2023-09-08T05:05:30;11.23;;;7.57;;
34725;SDS011;20951;50.818;4.344;2023-09-08T05:07:56;10.02;;;7.90;;
34725;SDS011;20951;50.818;4.344;2023-09-08T05:10:25;11.75;;;7.68;;
34725;SDS011;20951;50.818;4.344;2023-09-08T05:12:51;8.63;;;6.80;;
34725;SDS011;20951;50.818;4.344;2023-09-08T05:15:17;10.07;;;7.57;;
34725;SDS011;20951;50.818;4.344;2023-09-08T05:17:45;12.38;;;8.20;;
34725;SDS011;20951;50.818;4.344;2023-09-08T05:20:12;11.20;;;7.65;;
34725;SDS011;20951;50.818;4.344;2023-09-08T05:22:37;9.05;;;8.02;;
34725;SDS011;20951;50.818;4.344;2023-09-08T05:25:03;9.18;;;7.30;;
34725;SDS011;20951;50.818;4.344;2023-09-08T05:27:29;10.63;;;8.35;;
34725;SDS011;20951;50.818;4.344;2023-09-08T05:29:56;12.82;;;7.85;;
34725;SDS011;20951;50.818;4.344;2023-09-08T05:32:22;11.48;;;7.93;;
34725;SDS011;20951;50.818;4.344;2023-09-08T05:34:48;10.18;;;8.00;;
34725;SDS011;20951;50.818;4.344;2023-09-08T05:37:14;13.63;;;7.95;;
34725;SDS011;20951;50.818;4.344;2023-09-08T05:39:41;14.32;;;8.43;;
34725;SDS011;20951;50.818;4.344;2023-09-08T05:42:07;11.52;;;8.23;;
34725;SDS011;20951;50.818;4.344;2023-09-08T05:44:32;10.85;;;8.23;;
34725;SDS011;20951;50.818;4.344;2023-09-08T05:46:58;12.52;;;8.45;;
34725;SDS011;20951;50.818;4.344;2023-09-08T05:49:24;13.00;;;8.55;;
34725;SDS011;20951;50.818;4.344;2023-09-08T05:51:50;14.93;;;8.38;;
34725;SDS011;20951;50.818;4.344;2023-09-08T05:54:15;10.65;;;8.63;;
34725;SDS011;20951;50.818;4.344;2023-09-08T05:56:41;15.48;;;8.63;;
34725;SDS011;20951;50.818;4.344;2023-09-08T05:59:07;12.05;;;8.27;;
34725;SDS011;20951;50.818;4.344;2023-09-08T06:01:33;12.73;;;8.00;;
34725;SDS011;20951;50.818;4.344;2023-09-08T06:03:59;13.77;;;7.28;;
34725;SDS011;20951;50.818;4.344;2023-09-08T06:06:25;12.73;;;8.43;;
34725;SDS011;20951;50.818;4.344;2023-09-08T06:08:51;10.18;;;7.80;;
34725;SDS011;20951;50.818;4.344;2023-09-08T06:11:17;10.50;;;7.30;;
34725;SDS011;20951;50.818;4.344;2023-09-08T06:13:42;11.35;;;7.70;;
34725;SDS011;20951;50.818;4.344;2023-09-08T06:16:11;16.17;;;8.52;;
34725;SDS011;20951;50.818;4.344;2023-09-08T06:18:37;9.52;;;7.63;;
34725;SDS011;20951;50.818;4.344;2023-09-08T06:21:06;11.25;;;8.00;;
34725;SDS011;20951;50.818;4.344;2023-09-08T06:23:34;10.50;;;8.10;;
34725;SDS011;20951;50.818;4.344;2023-09-08T06:26:00;15.18;;;8.23;;
34725;SDS011;20951;50.818;4.344;2023-09-08T06:28:27;10.50;;;8.05;;
34725;SDS011;20951;50.818;4.344;2023-09-08T06:30:53;10.93;;;7.85;;
34725;SDS011;20951;50.818;4.344;2023-09-08T06:33:19;14.82;;;9.02;;
34725;SDS011;20951;50.818;4.344;2023-09-08T06:35:45;15.52;;;8.65;;
34725;SDS011;20951;50.818;4.344;2023-09-08T06:38:12;15.68;;;8.70;;
34725;SDS011;20951;50.818;4.344;2023-09-08T06:40:38;12.57;;;8.70;;
34725;SDS011;20951;50.818;4.344;2023-09-08T06:43:04;11.25;;;8.43;;
34725;SDS011;20951;50.818;4.344;2023-09-08T06:45:29;13.43;;;7.53;;
34725;SDS011;20951;50.818;4.344;2023-09-08T06:47:55;12.15;;;8.00;;
34725;SDS011;20951;50.818;4.344;2023-09-08T06:50:21;10.98;;;8.75;;
34725;SDS011;20951;50.818;4.344;2023-09-08T06:52:50;12.27;;;8.23;;
34725;SDS011;20951;50.818;4.344;2023-09-08T06:55:16;9.88;;;8.23;;
34725;SDS011;20951;50.818;4.344;2023-09-08T06:57:43;11.48;;;7.90;;
34725;SDS011;20951;50.818;4.344;2023-09-08T07:00:09;11.38;;;8.40;;
34725;SDS011;20951;50.818;4.344;2023-09-08T07:02:38;12.75;;;7.75;;
34725;SDS011;20951;50.818;4.344;2023-09-08T07:05:05;12.98;;;8.07;;
34725;SDS011;20951;50.818;4.344;2023-09-08T07:07:33;10.32;;;7.90;;
34725;SDS011;20951;50.818;4.344;2023-09-08T07:10:00;15.23;;;8.30;;
34725;SDS011;20951;50.818;4.344;2023-09-08T07:12:26;14.70;;;7.85;;
34725;SDS011;20951;50.818;4.344;2023-09-08T07:14:52;9.82;;;8.05;;
34725;SDS011;20951;50.818;4.344;2023-09-08T07:17:17;12.30;;;8.07;;
34725;SDS011;20951;50.818;4.344;2023-09-08T07:19:43;12.63;;;8.25;;
34725;SDS011;20951;50.818;4.344;2023-09-08T07:22:09;13.20;;;7.80;;
34725;SDS011;20951;50.818;4.344;2023-09-08T07:24:35;13.02;;;8.10;;
34725;SDS011;20951;50.818;4.344;2023-09-08T07:27:00;10.40;;;7.80;;
34725;SDS011;20951;50.818;4.344;2023-09-08T07:29:27;11.38;;;6.78;;
34725;SDS011;20951;50.818;4.344;2023-09-08T07:31:53;11.80;;;7.05;;
34725;SDS011;20951;50.818;4.344;2023-09-08T07:34:19;14.88;;;6.97;;
34725;SDS011;20951;50.818;4.344;2023-09-08T07:36:44;18.40;;;6.75;;
34725;SDS011;20951;50.818;4.344;2023-09-08T07:39:10;9.48;;;6.47;;
34725;SDS011;20951;50.818;4.344;2023-09-08T07:41:36;12.45;;;5.85;;
34725;SDS011;20951;50.818;4.344;2023-09-08T07:44:04;9.73;;;6.03;;
34725;SDS011;20951;50.818;4.344;2023-09-08T07:46:30;8.07;;;5.50;;
34725;SDS011;20951;50.818;4.344;2023-09-08T07:48:57;7.70;;;5.28;;
34725;SDS011;20951;50.818;4.344;2023-09-08T07:51:24;7.75;;;5.35;;
34725;SDS011;20951;50.818;4.344;2023-09-08T07:53:50;12.60;;;5.40;;
34725;SDS011;20951;50.818;4.344;2023-09-08T07:56:16;11.82;;;5.63;;
34725;SDS011;20951;50.818;4.344;2023-09-08T07:58:42;7.30;;;5.25;;
34725;SDS011;20951;50.818;4.344;2023-09-08T08:01:07;7.15;;;4.90;;
34725;SDS011;20951;50.818;4.344;2023-09-08T08:03:33;8.82;;;5.40;;
34725;SDS011;20951;50.818;4.344;2023-09-08T08:06:00;7.45;;;4.88;;
34725;SDS011;20951;50.818;4.344;2023-09-08T08:08:32;9.85;;;4.93;;
34725;SDS011;20951;50.818;4.344;2023-09-08T08:11:03;9.48;;;4.72;;
34725;SDS011;20951;50.818;4.344;2023-09-08T08:13:45;11.23;;;5.30;;
34725;SDS011;20951;50.818;4.344;2023-09-08T08:16:12;10.10;;;5.18;;
34725;SDS011;20951;50.818;4.344;2023-09-08T08:18:38;8.30;;;4.85;;
34725;SDS011;20951;50.818;4.344;2023-09-08T08:21:04;11.35;;;5.50;;
34725;SDS011;20951;50.818;4.344;2023-09-08T08:23:30;9.27;;;4.82;;
34725;SDS011;20951;50.818;4.344;2023-09-08T08:25:57;8.13;;;5.38;;
34725;SDS011;20951;50.818;4.344;2023-09-08T08:28:23;12.43;;;5.30;;
34725;SDS011;20951;50.818;4.344;2023-09-08T08:30:51;9.52;;;5.07;;
34725;SDS011;20951;50.818;4.344;2023-09-08T08:33:18;8.25;;;4.68;;
34725;SDS011;20951;50.818;4.344;2023-09-08T08:35:49;10.43;;;5.32;;
34725;SDS011;20951;50.818;4.344;2023-09-08T08:38:16;8.98;;;5.20;;
34725;SDS011;20951;50.818;4.344;2023-09-08T08:40:42;10.35;;;5.25;;
34725;SDS011;20951;50.818;4.344;2023-09-08T08:43:07;10.88;;;5.00;;
34725;SDS011;20951;50.818;4.344;2023-09-08T08:45:33;9.93;;;4.90;;
34725;SDS011;20951;50.818;4.344;2023-09-08T08:48:01;12.40;;;5.10;;
34725;SDS011;20951;50.818;4.344;2023-09-08T08:50:29;11.77;;;5.00;;
34725;SDS011;20951;50.818;4.344;2023-09-08T08:52:56;9.93;;;4.90;;
34725;SDS011;20951;50.818;4.344;2023-09-08T08:55:23;8.15;;;5.05;;
34725;SDS011;20951;50.818;4.344;2023-09-08T08:57:51;12.85;;;4.75;;
34725;SDS011;20951;50.818;4.344;2023-09-08T09:00:17;14.82;;;4.93;;
34725;SDS011;20951;50.818;4.344;2023-09-08T09:02:43;13.95;;;4.72;;
34725;SDS011;20951;50.818;4.344;2023-09-08T09:05:14;14.93;;;5.32;;
34725;SDS011;20951;50.818;4.344;2023-09-08T09:07:43;12.25;;;4.90;;
34725;SDS011;20951;50.818;4.344;2023-09-08T09:10:09;15.93;;;5.65;;
34725;SDS011;20951;50.818;4.344;2023-09-08T09:12:38;11.50;;;5.40;;
34725;SDS011;20951;50.818;4.344;2023-09-08T09:15:05;9.32;;;5.18;;
34725;SDS011;20951;50.818;4.344;2023-09-08T09:17:35;12.13;;;5.55;;
34725;SDS011;20951;50.818;4.344;2023-09-08T09:20:19;12.77;;;5.88;;
34725;SDS011;20951;50.818;4.344;2023-09-08T09:22:46;11.25;;;5.10;;
34725;SDS011;20951;50.818;4.344;2023-09-08T09:25:21;13.45;;;5.70;;
34725;SDS011;20951;50.818;4.344;2023-09-08T09:27:54;14.18;;;5.00;;
34725;SDS011;20951;50.818;4.344;2023-09-08T09:30:21;9.90;;;4.88;;
34725;SDS011;20951;50.818;4.344;2023-09-08T09:33:02;11.98;;;5.20;;
34725;SDS011;20951;50.818;4.344;2023-09-08T09:35:39;12.93;;;4.68;;
34725;SDS011;20951;50.818;4.344;2023-09-08T09:40:39;12.32;;;5.20;;
34725;SDS011;20951;50.818;4.344;2023-09-08T09:43:05;11.65;;;4.60;;
34725;SDS011;20951;50.818;4.344;2023-09-08T09:45:36;11.32;;;4.57;;
34725;SDS011;20951;50.818;4.344;2023-09-08T09:48:02;8.05;;;4.53;;
34725;SDS011;20951;50.818;4.344;2023-09-08T09:50:30;6.13;;;4.10;;
34725;SDS011;20951;50.818;4.344;2023-09-08T09:52:58;12.63;;;4.22;;
34725;SDS011;20951;50.818;4.344;2023-09-08T09:55:28;9.20;;;4.40;;
34725;SDS011;20951;50.818;4.344;2023-09-08T09:57:55;10.57;;;3.92;;
34725;SDS011;20951;50.818;4.344;2023-09-08T10:00:26;9.77;;;4.00;;
34725;SDS011;20951;50.818;4.344;2023-09-08T10:02:55;13.73;;;4.43;;
34725;SDS011;20951;50.818;4.344;2023-09-08T10:05:21;8.70;;;4.45;;
34725;SDS011;20951;50.818;4.344;2023-09-08T10:07:51;10.73;;;3.90;;
34725;SDS011;20951;50.818;4.344;2023-09-08T10:10:18;16.65;;;4.93;;
34725;SDS011;20951;50.818;4.344;2023-09-08T10:12:45;14.25;;;4.55;;
34725;SDS011;20951;50.818;4.344;2023-09-08T10:15:18;7.82;;;4.18;;
34725;SDS011;20951;50.818;4.344;2023-09-08T10:17:52;10.27;;;4.35;;
34725;SDS011;20951;50.818;4.344;2023-09-08T10:20:22;7.82;;;4.10;;
34725;SDS011;20951;50.818;4.344;2023-09-08T10:22:50;12.57;;;4.18;;
34725;SDS011;20951;50.818;4.344;2023-09-08T10:25:21;11.02;;;3.70;;
34725;SDS011;20951;50.818;4.344;2023-09-08T10:27:50;11.35;;;3.40;;
34725;SDS011;20951;50.818;4.344;2023-09-08T10:30:18;10.15;;;3.88;;
34725;SDS011;20951;50.818;4.344;2023-09-08T10:32:46;9.15;;;3.60;;
34725;SDS011;20951;50.818;4.344;2023-09-08T10:35:15;10.80;;;3.50;;
34725;SDS011;20951;50.818;4.344;2023-09-08T10:37:44;7.82;;;3.35;;
34725;SDS011;20951;50.818;4.344;2023-09-08T10:40:22;8.10;;;3.35;;
34725;SDS011;20951;50.818;4.344;2023-09-08T10:43:01;6.07;;;3.20;;
34725;SDS011;20951;50.818;4.344;2023-09-08T10:45:31;8.38;;;3.67;;
34725;SDS011;20951;50.818;4.344;2023-09-08T10:47:57;9.65;;;3.22;;
34725;SDS011;20951;50.818;4.344;2023-09-08T10:50:32;9.30;;;3.38;;
34725;SDS011;20951;50.818;4.344;2023-09-08T10:53:10;9.57;;;3.28;;
34725;SDS011;20951;50.818;4.344;2023-09-08T10:55:42;8.23;;;3.10;;
34725;SDS011;20951;50.818;4.344;2023-09-08T11:01:03;6.03;;;2.80;;
34725;SDS011;20951;50.818;4.344;2023-09-08T11:06:05;6.03;;;2.50;;
34725;SDS011;20951;50.818;4.344;2023-09-08T11:08:32;6.22;;;2.75;;
34725;SDS011;20951;50.818;4.344;2023-09-08T11:11:00;5.35;;;2.75;;
34725;SDS011;20951;50.818;4.344;2023-09-08T11:13:27;7.32;;;2.90;;
34725;SDS011;20951;50.818;4.344;2023-09-08T11:15:57;5.30;;;2.83;;
34725;SDS011;20951;50.818;4.344;2023-09-08T11:18:29;4.32;;;2.60;;
34725;SDS011;20951;50.818;4.344;2023-09-08T11:23:21;9.18;;;3.13;;
34725;SDS011;20951;50.818;4.344;2023-09-08T11:25:52;5.00;;;2.88;;
34725;SDS011;20951;50.818;4.344;2023-09-08T11:28:19;8.48;;;2.90;;
34725;SDS011;20951;50.818;4.344;2023-09-08T11:30:47;7.03;;;2.30;;
34725;SDS011;20951;50.818;4.344;2023-09-08T11:33:13;5.25;;;2.45;;
34725;SDS011;20951;50.818;4.344;2023-09-08T11:35:40;6.57;;;2.67;;
34725;SDS011;20951;50.818;4.344;2023-09-08T11:38:09;8.43;;;2.85;;
34725;SDS011;20951;50.818;4.344;2023-09-08T11:40:36;5.50;;;2.70;;
34725;SDS011;20951;50.818;4.344;2023-09-08T11:43:02;5.35;;;2.80;;
34725;SDS011;20951;50.818;4.344;2023-09-08T11:45:29;11.60;;;3.55;;
34725;SDS011;20951;50.818;4.344;2023-09-08T11:47:56;8.15;;;3.10;;
34725;SDS011;20951;50.818;4.344;2023-09-08T11:50:22;9.07;;;3.03;;
34725;SDS011;20951;50.818;4.344;2023-09-08T11:52:49;8.50;;;3.03;;
34725;SDS011;20951;50.818;4.344;2023-09-08T11:55:17;7.15;;;3.35;;
34725;SDS011;20951;50.818;4.344;2023-09-08T11:57:46;11.23;;;3.67;;
34725;SDS011;20951;50.818;4.344;2023-09-08T12:00:14;8.25;;;3.30;;
34725;SDS011;20951;50.818;4.344;2023-09-08T12:02:43;7.68;;;3.13;;
34725;SDS011;20951;50.818;4.344;2023-09-08T12:05:13;10.25;;;3.30;;
34725;SDS011;20951;50.818;4.344;2023-09-08T12:07:50;7.32;;;3.45;;
34725;SDS011;20951;50.818;4.344;2023-09-08T12:10:17;8.25;;;3.67;;
34725;SDS011;20951;50.818;4.344;2023-09-08T12:12:47;9.07;;;3.60;;
34725;SDS011;20951;50.818;4.344;2023-09-08T12:18:03;6.22;;;3.40;;
34725;SDS011;20951;50.818;4.344;2023-09-08T12:20:31;11.00;;;3.20;;
34725;SDS011;20951;50.818;4.344;2023-09-08T12:23:01;9.05;;;3.67;;
34725;SDS011;20951;50.818;4.344;2023-09-08T12:25:32;10.55;;;3.30;;
34725;SDS011;20951;50.818;4.344;2023-09-08T12:28:01;8.30;;;3.03;;
34725;SDS011;20951;50.818;4.344;2023-09-08T12:30:28;6.88;;;3.15;;
34725;SDS011;20951;50.818;4.344;2023-09-08T12:32:58;13.30;;;3.60;;
34725;SDS011;20951;50.818;4.344;2023-09-08T12:35:26;10.30;;;2.70;;
34725;SDS011;20951;50.818;4.344;2023-09-08T12:38:05;9.45;;;2.80;;
34725;SDS011;20951;50.818;4.344;2023-09-08T12:40:36;12.80;;;3.08;;
34725;SDS011;20951;50.818;4.344;2023-09-08T12:43:03;11.70;;;3.03;;
34725;SDS011;20951;50.818;4.344;2023-09-08T12:45:30;9.05;;;2.88;;
34725;SDS011;20951;50.818;4.344;2023-09-08T12:47:58;11.07;;;3.20;;
34725;SDS011;20951;50.818;4.344;2023-09-08T12:50:28;12.25;;;3.13;;
34725;SDS011;20951;50.818;4.344;2023-09-08T12:52:55;7.90;;;3.20;;
34725;SDS011;20951;50.818;4.344;2023-09-08T12:55:22;9.45;;;3.17;;
34725;SDS011;20951;50.818;4.344;2023-09-08T12:57:48;11.25;;;3.42;;
34725;SDS011;20951;50.818;4.344;2023-09-08T13:00:15;11.60;;;3.28;;
34725;SDS011;20951;50.818;4.344;2023-09-08T13:02:40;8.82;;;2.90;;
34725;SDS011;20951;50.818;4.344;2023-09-08T13:05:06;9.68;;;3.25;;
34725;SDS011;20951;50.818;4.344;2023-09-08T13:07:33;11.40;;;2.83;;
34725;SDS011;20951;50.818;4.344;2023-09-08T13:09:59;14.30;;;3.20;;
34725;SDS011;20951;50.818;4.344;2023-09-08T13:12:24;9.18;;;3.20;;
34725;SDS011;20951;50.818;4.344;2023-09-08T13:14:50;15.93;;;3.10;;
34725;SDS011;20951;50.818;4.344;2023-09-08T13:17:16;12.10;;;3.22;;
34725;SDS011;20951;50.818;4.344;2023-09-08T13:19:42;14.40;;;3.60;;
34725;SDS011;20951;50.818;4.344;2023-09-08T13:22:09;19.10;;;3.35;;
34725;SDS011;20951;50.818;4.344;2023-09-08T13:24:35;17.70;;;3.60;;
34725;SDS011;20951;50.818;4.344;2023-09-08T13:27:02;17.15;;;3.38;;
34725;SDS011;20951;50.818;4.344;2023-09-08T13:29:28;12.82;;;3.25;;
34725;SDS011;20951;50.818;4.344;2023-09-08T13:31:54;12.35;;;3.00;;
34725;SDS011;20951;50.818;4.344;2023-09-08T13:34:21;13.45;;;3.45;;
34725;SDS011;20951;50.818;4.344;2023-09-08T13:36:47;15.00;;;3.22;;
34725;SDS011;20951;50.818;4.344;2023-09-08T13:39:13;14.65;;;3.72;;
34725;SDS011;20951;50.818;4.344;2023-09-08T13:41:59;12.82;;;3.40;;
34725;SDS011;20951;50.818;4.344;2023-09-08T13:44:27;11.02;;;3.33;;
34725;SDS011;20951;50.818;4.344;2023-09-08T13:46:53;15.80;;;3.95;;
34725;SDS011;20951;50.818;4.344;2023-09-08T13:49:19;13.18;;;3.60;;
34725;SDS011;20951;50.818;4.344;2023-09-08T13:51:45;16.42;;;4.03;;
34725;SDS011;20951;50.818;4.344;2023-09-08T13:54:12;17.83;;;4.03;;
34725;SDS011;20951;50.818;4.344;2023-09-08T13:56:38;13.82;;;3.80;;
34725;SDS011;20951;50.818;4.344;2023-09-08T13:59:05;16.35;;;3.90;;
34725;SDS011;20951;50.818;4.344;2023-09-08T14:01:32;20.13;;;3.92;;
34725;SDS011;20951;50.818;4.344;2023-09-08T14:03:59;11.63;;;3.58;;
34725;SDS011;20951;50.818;4.344;2023-09-08T14:06:26;21.17;;;4.43;;
34725;SDS011;20951;50.818;4.344;2023-09-08T14:08:52;17.02;;;4.30;;
34725;SDS011;20951;50.818;4.344;2023-09-08T14:11:18;20.20;;;4.00;;
34725;SDS011;20951;50.818;4.344;2023-09-08T14:13:44;23.85;;;4.05;;
34725;SDS011;20951;50.818;4.344;2023-09-08T14:16:13;12.48;;;3.92;;
34725;SDS011;20951;50.818;4.344;2023-09-08T14:18:39;16.98;;;3.85;;
34725;SDS011;20951;50.818;4.344;2023-09-08T14:21:05;20.73;;;3.63;;
34725;SDS011;20951;50.818;4.344;2023-09-08T14:23:32;16.00;;;3.83;;
34725;SDS011;20951;50.818;4.344;2023-09-08T14:26:03;13.23;;;4.10;;
34725;SDS011;20951;50.818;4.344;2023-09-08T14:28:29;14.25;;;4.00;;
34725;SDS011;20951;50.818;4.344;2023-09-08T14:30:57;16.05;;;4.15;;
34725;SDS011;20951;50.818;4.344;2023-09-08T14:33:23;19.55;;;4.15;;
34725;SDS011;20951;50.818;4.344;2023-09-08T14:35:49;17.42;;;4.30;;
34725;SDS011;20951;50.818;4.344;2023-09-08T14:38:19;17.45;;;4.28;;
34725;SDS011;20951;50.818;4.344;2023-09-08T14:40:56;16.08;;;3.83;;
34725;SDS011;20951;50.818;4.344;2023-09-08T14:43:23;21.27;;;4.40;;
34725;SDS011;20951;50.818;4.344;2023-09-08T14:45:51;14.32;;;4.40;;
34725;SDS011;20951;50.818;4.344;2023-09-08T14:48:17;17.42;;;4.72;;
34725;SDS011;20951;50.818;4.344;2023-09-08T14:50:43;15.85;;;4.50;;
34725;SDS011;20951;50.818;4.344;2023-09-08T14:53:09;13.13;;;4.13;;
34725;SDS011;20951;50.818;4.344;2023-09-08T14:55:35;15.57;;;4.50;;
34725;SDS011;20951;50.818;4.344;2023-09-08T14:58:01;11.73;;;4.10;;